Time;durP1;ratioP1;P1;durP2;ratioP2;P2;SDS_P1;SDS_P2;PMS_P1;PMS_P2;Temp;Humidity;BMP_temperature;BMP_pressure;BME280_temperature;BME280_humidity;BME280_pressure;Samples;Min_cycle;Max_cycle;Signal;HPM_P1;HPM_P2
2023/06/15 00:01:29;;;;;;;7.63;3.63;;;;;;;;;;5092790;28;20028;-64
2023/06/15 00:03:54;;;;;;;9.15;3.42;;;;;;;;;;5107221;28;20354;-64
2023/06/15 00:06:20;;;;;;;9.40;3.42;;;;;;;;;;5117264;28;20448;-65
2023/06/15 00:08:45;;;;;;;10.20;3.47;;;;;;;;;;5117002;28;20030;-65
2023/06/15 00:11:11;;;;;;;6.57;3.65;;;;;;;;;;5117064;28;20028;-65
2023/06/15 00:13:36;;;;;;;9.32;3.85;;;;;;;;;;5116726;27;20024;-65
2023/06/15 00:16:02;;;;;;;7.50;3.72;;;;;;;;;;5116502;28;20461;-64
2023/06/15 00:18:28;;;;;;;9.25;4.00;;;;;;;;;;5116168;28;20020;-64
2023/06/15 00:20:55;;;;;;;7.10;3.47;;;;;;;;;;5116369;28;20023;-64
2023/06/15 00:23:26;;;;;;;6.25;3.30;;;;;;;;;;5116339;28;20028;-64
2023/06/15 00:25:52;;;;;;;7.35;3.10;;;;;;;;;;5116342;28;20024;-65
2023/06/15 00:28:17;;;;;;;9.00;3.13;;;;;;;;;;5116131;28;20072;-65
2023/06/15 00:30:43;;;;;;;4.95;2.90;;;;;;;;;;5116219;28;20103;-65
2023/06/15 00:33:08;;;;;;;7.00;2.90;;;;;;;;;;5116013;28;20035;-64
2023/06/15 00:35:34;;;;;;;6.97;2.88;;;;;;;;;;5116137;28;20031;-64
2023/06/15 00:37:59;;;;;;;4.70;2.90;;;;;;;;;;5104092;28;20028;-65
2023/06/15 00:40:24;;;;;;;4.82;2.83;;;;;;;;;;5114074;28;20453;-64
2023/06/15 00:42:50;;;;;;;5.35;2.90;;;;;;;;;;5116077;28;20036;-64
2023/06/15 00:45:15;;;;;;;4.97;2.70;;;;;;;;;;5115964;28;20032;-64
2023/06/15 00:47:43;;;;;;;6.63;2.80;;;;;;;;;;5100719;28;20055;-64
2023/06/15 00:50:10;;;;;;;5.07;2.88;;;;;;;;;;5095264;28;20038;-64
2023/06/15 00:52:37;;;;;;;5.07;3.05;;;;;;;;;;5095314;28;20448;-64
2023/06/15 00:55:03;;;;;;;5.78;3.30;;;;;;;;;;5095396;28;20092;-65
2023/06/15 00:57:30;;;;;;;5.82;3.33;;;;;;;;;;5095255;28;20384;-65
2023/06/15 00:59:56;;;;;;;6.20;3.50;;;;;;;;;;5094019;28;20032;-64
2023/06/15 01:02:24;;;;;;;4.45;3.10;;;;;;;;;;5095034;28;20091;-64
2023/06/15 01:04:50;;;;;;;6.03;3.40;;;;;;;;;;5113858;28;20457;-64
2023/06/15 01:07:16;;;;;;;6.80;3.17;;;;;;;;;;5115554;28;20035;-64
2023/06/15 01:09:43;;;;;;;7.70;3.35;;;;;;;;;;5115487;28;20409;-65
2023/06/15 01:12:14;;;;;;;4.78;3.20;;;;;;;;;;5115461;28;20023;-65
2023/06/15 01:14:40;;;;;;;6.53;3.72;;;;;;;;;;5114459;28;20069;-64
2023/06/15 01:17:10;;;;;;;6.43;3.45;;;;;;;;;;5115043;28;20024;-64
2023/06/15 01:19:54;;;;;;;7.90;3.63;;;;;;;;;;5115208;28;20020;-65
2023/06/15 01:22:35;;;;;;;6.13;3.50;;;;;;;;;;5115104;28;20040;-64
2023/06/15 01:25:10;;;;;;;6.72;3.92;;;;;;;;;;5115154;28;20027;-64
2023/06/15 01:27:36;;;;;;;9.80;3.97;;;;;;;;;;5114908;28;20532;-64
2023/06/15 01:30:04;;;;;;;13.65;4.88;;;;;;;;;;5113591;28;20114;-64
2023/06/15 01:32:31;;;;;;;10.73;5.03;;;;;;;;;;5114806;28;20485;-64
2023/06/15 01:34:57;;;;;;;11.05;5.25;;;;;;;;;;5115028;28;20045;-64
2023/06/15 01:37:22;;;;;;;11.35;5.30;;;;;;;;;;5108055;28;20461;-65
2023/06/15 01:39:48;;;;;;;12.77;5.97;;;;;;;;;;5107724;28;20027;-65
2023/06/15 01:42:14;;;;;;;13.80;6.00;;;;;;;;;;5114864;28;20034;-64
2023/06/15 01:44:40;;;;;;;11.48;6.10;;;;;;;;;;5114527;28;20097;-64
2023/06/15 01:47:07;;;;;;;13.27;6.32;;;;;;;;;;5104815;28;20024;-64
2023/06/15 01:49:33;;;;;;;10.05;6.30;;;;;;;;;;5094062;28;20035;-64
2023/06/15 01:51:58;;;;;;;14.23;5.97;;;;;;;;;;5094254;28;20073;-64
2023/06/15 01:54:24;;;;;;;11.20;5.80;;;;;;;;;;5094131;28;20486;-64
2023/06/15 01:56:49;;;;;;;12.05;5.82;;;;;;;;;;5094259;28;20038;-64
2023/06/15 01:59:15;;;;;;;10.05;5.78;;;;;;;;;;5093753;28;20042;-64
2023/06/15 02:01:40;;;;;;;12.57;5.60;;;;;;;;;;5093850;28;20016;-64
2023/06/15 02:04:06;;;;;;;12.00;5.70;;;;;;;;;;5106405;28;20039;-64
2023/06/15 02:06:31;;;;;;;11.63;6.38;;;;;;;;;;5114291;28;20107;-64
2023/06/15 02:08:56;;;;;;;9.80;5.07;;;;;;;;;;5114115;28;20023;-65
2023/06/15 02:11:22;;;;;;;6.95;4.57;;;;;;;;;;5114224;28;20388;-65
2023/06/15 02:13:47;;;;;;;9.23;4.43;;;;;;;;;;5113857;28;20084;-64
2023/06/15 02:16:15;;;;;;;7.40;4.30;;;;;;;;;;5114171;28;20472;-65
2023/06/15 02:18:44;;;;;;;8.07;4.45;;;;;;;;;;5114007;28;20445;-65
2023/06/15 02:21:10;;;;;;;11.80;4.30;;;;;;;;;;5114081;28;20027;-65
2023/06/15 02:23:35;;;;;;;8.48;4.07;;;;;;;;;;5114031;28;20031;-65
2023/06/15 02:26:02;;;;;;;6.82;4.20;;;;;;;;;;5113840;28;20019;-65
2023/06/15 02:28:28;;;;;;;7.45;4.03;;;;;;;;;;5113430;27;20024;-65
2023/06/15 02:30:53;;;;;;;7.38;4.47;;;;;;;;;;5113850;28;20020;-65
2023/06/15 02:33:19;;;;;;;7.40;4.38;;;;;;;;;;5113841;28;20028;-65
2023/06/15 02:35:44;;;;;;;8.00;4.18;;;;;;;;;;5113572;28;20036;-65
2023/06/15 02:38:10;;;;;;;8.43;4.50;;;;;;;;;;5100264;27;20027;-65
2023/06/15 02:40:35;;;;;;;6.32;3.95;;;;;;;;;;5113361;28;20042;-65
2023/06/15 02:43:00;;;;;;;5.70;4.05;;;;;;;;;;5113448;28;20035;-65
2023/06/15 02:45:26;;;;;;;7.47;4.15;;;;;;;;;;5113325;28;20047;-65
2023/06/15 02:47:51;;;;;;;11.35;4.93;;;;;;;;;;5097251;28;20503;-65
2023/06/15 02:50:17;;;;;;;6.43;4.07;;;;;;;;;;5092984;28;20107;-65
2023/06/15 02:52:45;;;;;;;7.32;3.70;;;;;;;;;;5093158;28;20062;-65
2023/06/15 02:55:13;;;;;;;10.07;3.90;;;;;;;;;;5093118;28;20032;-65
2023/06/15 02:57:38;;;;;;;5.75;3.88;;;;;;;;;;5092674;28;20028;-65
2023/06/15 03:00:05;;;;;;;6.45;3.63;;;;;;;;;;5093152;28;20026;-65
2023/06/15 03:02:31;;;;;;;4.97;3.63;;;;;;;;;;5093118;28;20020;-65
2023/06/15 03:04:56;;;;;;;8.85;4.70;;;;;;;;;;5112541;28;20023;-65
2023/06/15 03:07:22;;;;;;;8.45;4.30;;;;;;;;;;5113282;28;20326;-65
2023/06/15 03:09:49;;;;;;;7.07;3.97;;;;;;;;;;5113410;28;20019;-65
2023/06/15 03:12:15;;;;;;;7.13;3.47;;;;;;;;;;5113360;28;20032;-66
2023/06/15 03:14:44;;;;;;;5.25;3.58;;;;;;;;;;5113329;28;20492;-65
2023/06/15 03:17:12;;;;;;;5.00;3.40;;;;;;;;;;5113114;28;20027;-65
2023/06/15 03:19:39;;;;;;;7.35;4.43;;;;;;;;;;5113294;28;20027;-65
2023/06/15 03:22:07;;;;;;;6.00;3.83;;;;;;;;;;5113123;28;20023;-65
2023/06/15 03:24:33;;;;;;;6.28;3.85;;;;;;;;;;5113085;28;20116;-66
2023/06/15 03:27:01;;;;;;;11.25;4.85;;;;;;;;;;5112601;28;20023;-65
2023/06/15 03:29:31;;;;;;;10.27;4.32;;;;;;;;;;5113018;28;20026;-65
2023/06/15 03:31:57;;;;;;;14.93;5.82;;;;;;;;;;5113045;28;20059;-64
2023/06/15 03:34:24;;;;;;;16.20;4.60;;;;;;;;;;5113049;28;20064;-64
2023/06/15 03:36:51;;;;;;;7.22;4.53;;;;;;;;;;5111736;28;20023;-64
2023/06/15 03:39:18;;;;;;;14.05;5.43;;;;;;;;;;5105403;28;20071;-64
2023/06/15 03:41:44;;;;;;;9.30;4.85;;;;;;;;;;5116381;28;20024;-64
2023/06/15 03:44:09;;;;;;;9.93;5.00;;;;;;;;;;5117138;28;20024;-64
2023/06/15 03:46:35;;;;;;;11.98;5.18;;;;;;;;;;5111709;28;20012;-64
2023/06/15 03:49:00;;;;;;;10.32;4.90;;;;;;;;;;5096238;28;20565;-64
2023/06/15 03:51:27;;;;;;;9.93;5.18;;;;;;;;;;5096462;28;20058;-64
2023/06/15 03:53:53;;;;;;;10.00;5.28;;;;;;;;;;5096453;28;20076;-64
2023/06/15 03:56:18;;;;;;;12.77;5.38;;;;;;;;;;5096198;28;20032;-64
2023/06/15 03:58:43;;;;;;;11.15;5.38;;;;;;;;;;5096257;28;20028;-64
2023/06/15 04:01:12;;;;;;;11.15;4.95;;;;;;;;;;5096189;28;20093;-64
2023/06/15 04:03:38;;;;;;;11.40;5.75;;;;;;;;;;5104648;28;20032;-64
2023/06/15 04:06:05;;;;;;;15.75;6.10;;;;;;;;;;5116569;28;20024;-65
2023/06/15 04:08:35;;;;;;;11.70;4.95;;;;;;;;;;5116439;28;20055;-64
2023/06/15 04:11:01;;;;;;;9.85;5.10;;;;;;;;;;5116378;28;20020;-64
2023/06/15 04:13:26;;;;;;;14.57;5.60;;;;;;;;;;5116234;28;20066;-64
2023/06/15 04:15:53;;;;;;;9.02;4.70;;;;;;;;;;5116530;28;20024;-64
2023/06/15 04:18:19;;;;;;;8.98;4.63;;;;;;;;;;5116298;28;20019;-64
2023/06/15 04:20:45;;;;;;;8.48;4.75;;;;;;;;;;5116303;28;20027;-64
2023/06/15 04:23:11;;;;;;;8.05;5.10;;;;;;;;;;5116165;28;20353;-65
2023/06/15 04:25:40;;;;;;;13.02;5.38;;;;;;;;;;5115870;28;20023;-64
2023/06/15 04:28:10;;;;;;;21.85;6.00;;;;;;;;;;5116014;28;20027;-64
2023/06/15 04:30:40;;;;;;;13.05;5.82;;;;;;;;;;5115960;28;20031;-64
2023/06/15 04:33:12;;;;;;;7.85;5.07;;;;;;;;;;5116291;28;20426;-65
2023/06/15 04:35:40;;;;;;;10.80;5.18;;;;;;;;;;5116327;28;20117;-64
2023/06/15 04:38:06;;;;;;;14.10;5.18;;;;;;;;;;5103013;28;20024;-64
2023/06/15 04:40:31;;;;;;;11.07;5.20;;;;;;;;;;5114905;28;20434;-64
2023/06/15 04:43:02;;;;;;;10.90;5.35;;;;;;;;;;5116096;28;20496;-64
2023/06/15 04:45:28;;;;;;;10.20;5.18;;;;;;;;;;5115924;28;20469;-64
2023/06/15 04:47:54;;;;;;;8.65;5.15;;;;;;;;;;5098453;28;20059;-65
2023/06/15 04:50:21;;;;;;;8.18;5.22;;;;;;;;;;5094779;28;20502;-64
2023/06/15 04:52:47;;;;;;;10.48;5.13;;;;;;;;;;5095041;28;20028;-64
2023/06/15 04:55:13;;;;;;;9.38;4.78;;;;;;;;;;5095363;28;20047;-64
2023/06/15 04:57:38;;;;;;;10.55;5.13;;;;;;;;;;5095241;28;20020;-64
2023/06/15 05:00:07;;;;;;;11.73;4.47;;;;;;;;;;5095453;28;20103;-64
2023/06/15 05:02:32;;;;;;;7.25;4.88;;;;;;;;;;5094905;28;20063;-65
2023/06/15 05:04:58;;;;;;;9.98;5.00;;;;;;;;;;5114924;28;20461;-64
2023/06/15 05:07:23;;;;;;;8.32;4.97;;;;;;;;;;5115189;28;20472;-65
2023/06/15 05:09:49;;;;;;;9.95;4.80;;;;;;;;;;5115461;28;20384;-64
2023/06/15 05:12:14;;;;;;;9.55;5.38;;;;;;;;;;5115221;28;20023;-64
2023/06/15 05:14:40;;;;;;;8.77;5.05;;;;;;;;;;5115239;28;20052;-64
2023/06/15 05:17:05;;;;;;;7.35;4.78;;;;;;;;;;5115086;28;20019;-64
2023/06/15 05:19:31;;;;;;;11.68;4.80;;;;;;;;;;5115254;28;20377;-64
2023/06/15 05:22:02;;;;;;;9.52;4.65;;;;;;;;;;5114947;28;20032;-64
2023/06/15 05:24:28;;;;;;;8.98;5.00;;;;;;;;;;5114468;28;20061;-65
2023/06/15 05:26:53;;;;;;;7.43;4.70;;;;;;;;;;5115009;28;20024;-64
2023/06/15 05:29:19;;;;;;;7.05;4.43;;;;;;;;;;5114800;28;20050;-64
2023/06/15 05:31:45;;;;;;;15.45;4.82;;;;;;;;;;5114999;28;20107;-64
2023/06/15 05:34:10;;;;;;;10.50;5.13;;;;;;;;;;5114737;28;20176;-64
2023/06/15 05:36:36;;;;;;;9.95;4.82;;;;;;;;;;5114489;28;20024;-65
2023/06/15 05:39:03;;;;;;;7.90;4.82;;;;;;;;;;5087620;28;20031;-64
2023/06/15 05:41:29;;;;;;;9.35;4.85;;;;;;;;;;5114688;28;20043;-65
2023/06/15 05:43:54;;;;;;;10.48;4.50;;;;;;;;;;5114667;28;20023;-64
2023/06/15 05:46:20;;;;;;;8.63;4.55;;;;;;;;;;5111647;28;20019;-64
2023/06/15 05:48:45;;;;;;;8.95;4.93;;;;;;;;;;5093810;28;20459;-65
2023/06/15 05:51:11;;;;;;;8.20;4.35;;;;;;;;;;5094035;28;20427;-64
2023/06/15 05:53:36;;;;;;;8.77;4.85;;;;;;;;;;5094002;28;20068;-64
2023/06/15 05:56:03;;;;;;;15.05;5.30;;;;;;;;;;5094088;28;20095;-65
2023/06/15 05:58:29;;;;;;;9.68;5.57;;;;;;;;;;5093984;28;20024;-65
2023/06/15 06:00:54;;;;;;;10.35;4.88;;;;;;;;;;5093715;28;20097;-64
2023/06/15 06:03:20;;;;;;;9.43;5.00;;;;;;;;;;5099879;28;20035;-65
2023/06/15 06:05:45;;;;;;;7.80;4.60;;;;;;;;;;5114022;28;20122;-65
2023/06/15 06:08:10;;;;;;;10.70;4.88;;;;;;;;;;5113040;28;20072;-65
2023/06/15 06:10:36;;;;;;;9.30;5.03;;;;;;;;;;5114167;28;20031;-65
2023/06/15 06:13:01;;;;;;;10.63;5.07;;;;;;;;;;5114015;28;20016;-65
2023/06/15 06:15:29;;;;;;;8.80;4.90;;;;;;;;;;5114428;28;20057;-68
2023/06/15 06:17:55;;;;;;;7.13;4.80;;;;;;;;;;5113998;28;20028;-64
2023/06/15 06:20:20;;;;;;;8.65;5.05;;;;;;;;;;5113709;28;20103;-67
2023/06/15 06:22:46;;;;;;;8.65;4.47;;;;;;;;;;5114353;28;20031;-67
2023/06/15 06:25:11;;;;;;;10.35;5.45;;;;;;;;;;5113952;28;20077;-66
2023/06/15 06:27:37;;;;;;;7.68;5.38;;;;;;;;;;5113582;28;20027;-65
2023/06/15 06:30:02;;;;;;;9.65;5.05;;;;;;;;;;5113745;28;20020;-64
2023/06/15 06:32:28;;;;;;;7.38;4.70;;;;;;;;;;5113789;28;20030;-64
2023/06/15 06:34:53;;;;;;;6.88;4.80;;;;;;;;;;5113551;28;20027;-64
2023/06/15 06:37:19;;;;;;;10.63;4.78;;;;;;;;;;5107501;28;20048;-64
2023/06/15 06:39:45;;;;;;;10.20;4.50;;;;;;;;;;5106022;28;20495;-64
2023/06/15 06:42:10;;;;;;;12.20;5.00;;;;;;;;;;5113626;28;20028;-64
2023/06/15 06:44:35;;;;;;;8.55;4.80;;;;;;;;;;5113371;28;20484;-64
2023/06/15 06:47:01;;;;;;;8.05;4.80;;;;;;;;;;5104459;28;20107;-64
2023/06/15 06:49:27;;;;;;;7.43;4.55;;;;;;;;;;5092642;28;20020;-64
2023/06/15 06:51:52;;;;;;;13.07;4.75;;;;;;;;;;5092646;28;20032;-64
2023/06/15 06:54:19;;;;;;;7.53;4.72;;;;;;;;;;5093007;28;20069;-64
2023/06/15 06:56:45;;;;;;;11.50;5.00;;;;;;;;;;5093168;28;20020;-64
2023/06/15 06:59:10;;;;;;;10.80;4.88;;;;;;;;;;5092895;28;20034;-64
2023/06/15 07:01:35;;;;;;;8.52;4.63;;;;;;;;;;5092830;28;20465;-64
2023/06/15 07:04:01;;;;;;;16.20;4.78;;;;;;;;;;5104131;28;20536;-64
2023/06/15 07:06:26;;;;;;;10.55;5.13;;;;;;;;;;5113039;28;20374;-65
2023/06/15 07:08:52;;;;;;;10.48;4.82;;;;;;;;;;5112942;28;20114;-64
2023/06/15 07:11:17;;;;;;;8.27;4.55;;;;;;;;;;5112495;28;20024;-64
2023/06/15 07:13:43;;;;;;;6.22;4.15;;;;;;;;;;5113196;28;20454;-65
2023/06/15 07:16:09;;;;;;;16.10;5.40;;;;;;;;;;5113159;28;20027;-65
2023/06/15 07:18:34;;;;;;;11.73;4.57;;;;;;;;;;5112726;28;20436;-65
2023/06/15 07:21:00;;;;;;;10.07;4.88;;;;;;;;;;5113086;28;20019;-65
2023/06/15 07:23:25;;;;;;;8.65;4.50;;;;;;;;;;5113148;28;20059;-64
2023/06/15 07:25:52;;;;;;;14.55;4.95;;;;;;;;;;5113174;28;20058;-65
2023/06/15 07:28:18;;;;;;;12.07;4.97;;;;;;;;;;5112770;28;20495;-65
2023/06/15 07:30:46;;;;;;;8.90;5.03;;;;;;;;;;5113116;28;20084;-64
2023/06/15 07:33:12;;;;;;;11.25;4.60;;;;;;;;;;5112732;28;20020;-64
2023/06/15 07:35:37;;;;;;;9.23;4.32;;;;;;;;;;5113066;28;20453;-65
2023/06/15 07:38:03;;;;;;;11.60;5.13;;;;;;;;;;5100721;28;20028;-65
2023/06/15 07:40:29;;;;;;;12.57;4.80;;;;;;;;;;5111426;28;20031;-65
2023/06/15 07:42:54;;;;;;;10.45;5.07;;;;;;;;;;5112994;28;20070;-64
2023/06/15 07:45:19;;;;;;;18.00;5.80;;;;;;;;;;5112880;28;20078;-65
2023/06/15 07:47:45;;;;;;;13.15;5.20;;;;;;;;;;5095894;28;20048;-65
2023/06/15 07:50:11;;;;;;;11.07;5.40;;;;;;;;;;5092273;28;20036;-65
2023/06/15 07:52:36;;;;;;;8.32;5.32;;;;;;;;;;5092441;28;20028;-65
2023/06/15 07:55:03;;;;;;;8.27;5.30;;;;;;;;;;5092476;28;20020;-65
2023/06/15 07:57:28;;;;;;;11.15;4.60;;;;;;;;;;5092308;28;20028;-65
2023/06/15 07:59:54;;;;;;;8.80;4.55;;;;;;;;;;5092364;28;20397;-64
2023/06/15 08:02:19;;;;;;;8.48;4.07;;;;;;;;;;5092209;28;20107;-65
2023/06/15 08:04:45;;;;;;;6.85;3.70;;;;;;;;;;5110148;28;20353;-65
2023/06/15 08:07:12;;;;;;;8.38;3.83;;;;;;;;;;5112726;28;20023;-64
2023/06/15 08:09:37;;;;;;;8.13;3.42;;;;;;;;;;5112662;28;20464;-65
2023/06/15 08:12:03;;;;;;;7.00;3.78;;;;;;;;;;5112501;28;20058;-65
2023/06/15 08:14:29;;;;;;;8.48;4.40;;;;;;;;;;5112558;28;20024;-64
2023/06/15 08:16:54;;;;;;;10.25;3.90;;;;;;;;;;5112364;28;20026;-65
2023/06/15 08:19:20;;;;;;;7.47;4.18;;;;;;;;;;5112667;28;20028;-65
2023/06/15 08:21:45;;;;;;;12.68;3.50;;;;;;;;;;5112546;28;20023;-64
2023/06/15 08:24:12;;;;;;;7.57;3.42;;;;;;;;;;5115307;28;20111;-64
2023/06/15 08:26:38;;;;;;;11.20;3.45;;;;;;;;;;5115925;28;20125;-65
2023/06/15 08:29:04;;;;;;;14.70;3.85;;;;;;;;;;5116080;28;20028;-65
2023/06/15 08:31:30;;;;;;;15.50;3.80;;;;;;;;;;5115959;28;20019;-64
2023/06/15 08:33:55;;;;;;;8.30;3.63;;;;;;;;;;5116041;28;20075;-65
2023/06/15 08:36:22;;;;;;;12.13;3.67;;;;;;;;;;5116201;28;20374;-64
2023/06/15 08:38:48;;;;;;;9.18;3.97;;;;;;;;;;5102062;28;20468;-64
2023/06/15 08:41:13;;;;;;;7.07;3.78;;;;;;;;;;5115999;28;20035;-64
2023/06/15 08:43:43;;;;;;;11.25;3.80;;;;;;;;;;5115982;28;20019;-64
2023/06/15 08:46:08;;;;;;;10.55;3.58;;;;;;;;;;5114276;28;20023;-65
2023/06/15 08:48:35;;;;;;;7.57;3.10;;;;;;;;;;5095085;28;20556;-65
2023/06/15 08:51:02;;;;;;;10.63;3.40;;;;;;;;;;5095318;28;20046;-64
2023/06/15 08:53:29;;;;;;;10.13;3.95;;;;;;;;;;5095535;28;20028;-65
2023/06/15 08:55:55;;;;;;;6.43;3.42;;;;;;;;;;5095441;28;20089;-64
2023/06/15 08:58:20;;;;;;;10.65;3.20;;;;;;;;;;5095318;28;20032;-64
2023/06/15 09:00:46;;;;;;;5.93;3.20;;;;;;;;;;5095119;28;20027;-65
2023/06/15 09:03:17;;;;;;;7.95;3.90;;;;;;;;;;5099859;28;20380;-65
2023/06/15 09:05:43;;;;;;;6.53;3.63;;;;;;;;;;5115419;28;20042;-64
2023/06/15 09:08:09;;;;;;;8.95;3.30;;;;;;;;;;5115207;28;20023;-64
2023/06/15 09:10:38;;;;;;;10.25;3.30;;;;;;;;;;5115396;28;20030;-65
2023/06/15 09:13:03;;;;;;;7.32;3.60;;;;;;;;;;5115407;27;20032;-65
2023/06/15 09:15:30;;;;;;;6.80;3.42;;;;;;;;;;5115243;28;20460;-66
2023/06/15 09:17:57;;;;;;;4.35;3.28;;;;;;;;;;5115308;28;20032;-64
2023/06/15 09:20:27;;;;;;;4.50;3.10;;;;;;;;;;5115469;28;20028;-65
2023/06/15 09:23:00;;;;;;;5.13;3.20;;;;;;;;;;5115317;28;20427;-64
2023/06/15 09:25:26;;;;;;;7.57;3.63;;;;;;;;;;5115228;28;20035;-64
2023/06/15 09:27:53;;;;;;;10.13;3.50;;;;;;;;;;5114687;28;20084;-64
2023/06/15 09:30:18;;;;;;;8.50;3.67;;;;;;;;;;5114842;28;20106;-64
2023/06/15 09:32:44;;;;;;;5.15;3.30;;;;;;;;;;5114824;28;20058;-65
2023/06/15 09:35:10;;;;;;;5.15;2.90;;;;;;;;;;5114233;28;20028;-64
2023/06/15 09:37:37;;;;;;;9.77;3.38;;;;;;;;;;5106659;28;20015;-65
2023/06/15 09:40:10;;;;;;;18.98;3.58;;;;;;;;;;5109638;28;20034;-66
2023/06/15 09:42:38;;;;;;;8.52;3.65;;;;;;;;;;5114626;28;20400;-65
2023/06/15 09:45:05;;;;;;;6.40;3.20;;;;;;;;;;5114818;28;20077;-65
2023/06/15 09:47:31;;;;;;;6.55;3.40;;;;;;;;;;5101407;28;20100;-65
2023/06/15 09:49:58;;;;;;;8.02;3.45;;;;;;;;;;5094208;28;20544;-65
2023/06/15 09:52:24;;;;;;;11.15;3.70;;;;;;;;;;5094076;28;20462;-66
2023/06/15 09:54:52;;;;;;;10.23;3.55;;;;;;;;;;5092902;28;20031;-64
2023/06/15 09:57:19;;;;;;;6.43;3.72;;;;;;;;;;5093807;28;20028;-64
2023/06/15 09:59:48;;;;;;;7.18;3.53;;;;;;;;;;5093963;28;20027;-64
2023/06/15 10:02:17;;;;;;;6.75;3.35;;;;;;;;;;5093877;28;20024;-64
2023/06/15 10:04:45;;;;;;;6.90;3.40;;;;;;;;;;5111191;28;20039;-64
2023/06/15 10:07:12;;;;;;;10.98;3.65;;;;;;;;;;5114216;28;20050;-68
2023/06/15 10:09:45;;;;;;;5.97;3.78;;;;;;;;;;5112152;28;20032;-66
2023/06/15 10:12:25;;;;;;;8.57;4.30;;;;;;;;;;5114037;28;20114;-66
2023/06/15 10:14:50;;;;;;;6.53;4.30;;;;;;;;;;5114240;28;20388;-64
2023/06/15 10:17:20;;;;;;;16.90;5.47;;;;;;;;;;5114022;27;20028;-67
2023/06/15 10:19:50;;;;;;;14.15;6.03;;;;;;;;;;5114308;28;20031;-65
2023/06/15 10:22:23;;;;;;;9.15;4.78;;;;;;;;;;5114041;28;20032;-65
2023/06/15 10:24:51;;;;;;;13.27;4.60;;;;;;;;;;5113938;28;20493;-65
2023/06/15 10:27:17;;;;;;;9.23;4.53;;;;;;;;;;5113456;28;20035;-65
2023/06/15 10:29:54;;;;;;;12.98;4.30;;;;;;;;;;5113868;28;20077;-65
2023/06/15 10:32:45;;;;;;;11.45;3.92;;;;;;;;;;5113810;28;20016;-66
2023/06/15 10:35:16;;;;;;;12.05;4.47;;;;;;;;;;5113625;28;20031;-64
2023/06/15 10:38:21;;;;;;;8.60;3.70;;;;;;;;;;5104452;28;20035;-66
2023/06/15 10:40:48;;;;;;;8.95;3.90;;;;;;;;;;5030793;28;20042;-65
2023/06/15 10:43:21;;;;;;;10.95;4.63;;;;;;;;;;5031079;28;20704;-68
2023/06/15 10:45:48;;;;;;;6.82;4.32;;;;;;;;;;5030975;28;20077;-64
2023/06/15 10:48:27;;;;;;;13.75;4.53;;;;;;;;;;5030669;28;20050;-63
2023/06/15 10:51:05;;;;;;;;;;;;;;;;;;5050832;28;20041;-64
2023/06/15 10:53:40;;;;;;;9.18;4.60;;;;;;;;;;5050341;28;19935;-63
2023/06/15 10:56:13;;;;;;;8.02;4.03;;;;;;;;;;5050497;28;20116;-63
2023/06/15 10:58:51;;;;;;;13.20;4.55;;;;;;;;;;5033916;28;20118;-64
2023/06/15 11:01:21;;;;;;;8.10;3.97;;;;;;;;;;5050879;28;20033;-65
2023/06/15 11:03:46;;;;;;;7.95;4.10;;;;;;;;;;5041020;28;20018;-64
2023/06/15 11:06:15;;;;;;;7.45;3.85;;;;;;;;;;5030545;28;20048;-64
2023/06/15 11:09:01;;;;;;;10.98;3.47;;;;;;;;;;5030617;28;20040;-64
2023/06/15 11:11:31;;;;;;;8.18;3.55;;;;;;;;;;5030645;28;20436;-64
2023/06/15 11:14:06;;;;;;;8.63;3.58;;;;;;;;;;5014396;28;20514;-65
2023/06/15 11:16:36;;;;;;;6.38;3.63;;;;;;;;;;5030495;28;20061;-65
2023/06/15 11:19:13;;;;;;;9.10;3.45;;;;;;;;;;5072653;28;20012;-65
2023/06/15 11:21:48;;;;;;;6.20;3.65;;;;;;;;;;5072553;28;20033;-64
2023/06/15 11:24:15;;;;;;;7.57;3.70;;;;;;;;;;5072478;28;20410;-65
2023/06/15 11:26:42;;;;;;;8.73;3.67;;;;;;;;;;5072544;28;20031;-65
2023/06/15 11:29:09;;;;;;;5.72;3.13;;;;;;;;;;5072438;28;20035;-65
2023/06/15 11:31:35;;;;;;;6.78;3.92;;;;;;;;;;5072521;28;20024;-65
2023/06/15 11:34:01;;;;;;;10.80;3.83;;;;;;;;;;5072436;28;20031;-64
2023/06/15 11:36:27;;;;;;;7.22;3.47;;;;;;;;;;5072130;28;20106;-64
2023/06/15 11:38:53;;;;;;;7.03;2.90;;;;;;;;;;5096127;28;20031;-64
2023/06/15 11:41:19;;;;;;;5.15;3.00;;;;;;;;;;5112855;28;20419;-64
2023/06/15 11:43:50;;;;;;;5.30;3.50;;;;;;;;;;5112759;28;20026;-65
2023/06/15 11:46:20;;;;;;;7.50;3.30;;;;;;;;;;5110536;28;20019;-65
2023/06/15 11:48:47;;;;;;;7.50;3.42;;;;;;;;;;5092051;28;20052;-64
2023/06/15 11:51:14;;;;;;;5.80;3.40;;;;;;;;;;5092493;28;20113;-65
2023/06/15 11:53:41;;;;;;;9.70;4.00;;;;;;;;;;5092093;28;20461;-65
2023/06/15 11:56:14;;;;;;;5.55;2.90;;;;;;;;;;5092509;28;20032;-65
2023/06/15 11:58:40;;;;;;;5.60;3.03;;;;;;;;;;5094645;28;20103;-65
2023/06/15 12:01:06;;;;;;;7.70;3.08;;;;;;;;;;5096479;28;20024;-65
2023/06/15 12:03:32;;;;;;;8.98;3.35;;;;;;;;;;5103931;28;20020;-65
2023/06/15 12:05:58;;;;;;;8.23;3.65;;;;;;;;;;5116863;28;20059;-65
2023/06/15 12:08:25;;;;;;;6.95;3.40;;;;;;;;;;5116238;28;20511;-65
2023/06/15 12:10:52;;;;;;;9.90;4.00;;;;;;;;;;5116701;28;20054;-65
2023/06/15 12:13:18;;;;;;;6.82;4.05;;;;;;;;;;5116656;28;20031;-66
2023/06/15 12:15:46;;;;;;;6.25;3.60;;;;;;;;;;5116674;28;20423;-64
2023/06/15 12:18:12;;;;;;;7.93;3.90;;;;;;;;;;5116612;28;20087;-65
2023/06/15 12:20:39;;;;;;;8.60;3.80;;;;;;;;;;5116383;28;20066;-65
2023/06/15 12:23:05;;;;;;;7.63;4.38;;;;;;;;;;5116135;28;20392;-65
2023/06/15 12:25:47;;;;;;;10.60;3.50;;;;;;;;;;5116332;27;20098;-65
2023/06/15 12:28:16;;;;;;;8.65;4.07;;;;;;;;;;5116028;28;20020;-65
2023/06/15 12:30:42;;;;;;;6.75;4.05;;;;;;;;;;5116026;28;20024;-65
2023/06/15 12:33:38;;;;;;;13.48;4.55;;;;;;;;;;5116057;28;20110;-64
2023/06/15 12:36:09;;;;;;;11.15;4.22;;;;;;;;;;5116144;28;20016;-66
2023/06/15 12:38:34;;;;;;;12.77;4.50;;;;;;;;;;5101864;28;20023;-64
2023/06/15 12:40:59;;;;;;;12.55;4.45;;;;;;;;;;5115901;28;20393;-64
2023/06/15 12:43:25;;;;;;;9.75;4.70;;;;;;;;;;5116020;28;20023;-64
2023/06/15 12:45:53;;;;;;;8.75;5.03;;;;;;;;;;5116020;28;20030;-65
2023/06/15 12:48:19;;;;;;;7.32;4.97;;;;;;;;;;5094688;28;20090;-65
2023/06/15 12:50:44;;;;;;;14.50;4.63;;;;;;;;;;5095190;28;20112;-65
2023/06/15 12:53:10;;;;;;;7.85;4.28;;;;;;;;;;5095067;28;20038;-65
2023/06/15 12:55:36;;;;;;;9.88;4.32;;;;;;;;;;5095577;28;20024;-65
2023/06/15 12:58:03;;;;;;;13.25;5.03;;;;;;;;;;5095393;28;20035;-64
2023/06/15 13:00:29;;;;;;;10.10;5.30;;;;;;;;;;5095271;28;20016;-64
2023/06/15 13:02:55;;;;;;;11.20;5.15;;;;;;;;;;5097483;28;20020;-64
2023/06/15 13:05:21;;;;;;;8.88;5.18;;;;;;;;;;5115473;28;20412;-64
2023/06/15 13:07:46;;;;;;;9.68;4.82;;;;;;;;;;5115556;28;20465;-64
2023/06/15 13:10:13;;;;;;;9.40;4.68;;;;;;;;;;5114363;28;20023;-65
2023/06/15 13:12:43;;;;;;;6.43;4.80;;;;;;;;;;5115448;27;20031;-65
2023/06/15 13:15:09;;;;;;;8.65;4.35;;;;;;;;;;5115422;28;20032;-65
2023/06/15 13:17:36;;;;;;;11.55;4.75;;;;;;;;;;5115163;28;20376;-65
2023/06/15 13:20:04;;;;;;;7.78;5.10;;;;;;;;;;5115157;28;20028;-65
2023/06/15 13:22:29;;;;;;;8.00;5.10;;;;;;;;;;5115359;28;20028;-66
2023/06/15 13:24:55;;;;;;;9.68;5.20;;;;;;;;;;5115080;28;20019;-66
2023/06/15 13:27:20;;;;;;;8.10;4.63;;;;;;;;;;5115035;28;20045;-65
2023/06/15 13:29:46;;;;;;;7.38;5.10;;;;;;;;;;5115024;28;20100;-64
2023/06/15 13:32:11;;;;;;;8.75;4.95;;;;;;;;;;5115019;28;20028;-65
2023/06/15 13:34:36;;;;;;;8.75;5.25;;;;;;;;;;5114947;28;20035;-65
2023/06/15 13:37:02;;;;;;;9.57;4.68;;;;;;;;;;5111187;28;20408;-64
2023/06/15 13:39:28;;;;;;;9.70;4.50;;;;;;;;;;5104605;28;20038;-64
2023/06/15 13:41:54;;;;;;;8.35;4.47;;;;;;;;;;5114759;28;20024;-65
2023/06/15 13:44:20;;;;;;;12.63;5.18;;;;;;;;;;5114756;28;20059;-65
2023/06/15 13:46:45;;;;;;;10.02;4.75;;;;;;;;;;5108164;28;20032;-64
2023/06/15 13:49:10;;;;;;;8.57;4.45;;;;;;;;;;5093712;28;20040;-64
2023/06/15 13:51:36;;;;;;;7.55;4.85;;;;;;;;;;5094141;28;20024;-64
2023/06/15 13:54:02;;;;;;;8.88;5.00;;;;;;;;;;5094246;28;20029;-64
2023/06/15 13:56:28;;;;;;;9.80;4.60;;;;;;;;;;5094229;28;20028;-64
2023/06/15 13:58:55;;;;;;;9.40;4.75;;;;;;;;;;5093883;28;20166;-64
2023/06/15 14:01:23;;;;;;;11.10;5.72;;;;;;;;;;5093915;28;20031;-65
2023/06/15 14:03:53;;;;;;;8.90;5.05;;;;;;;;;;5102239;28;20023;-64
2023/06/15 14:06:19;;;;;;;;;;;;;;;;;;5113604;28;20377;-64
2023/06/15 14:08:45;;;;;;;7.22;5.25;;;;;;;;;;5114309;28;19911;-64
2023/06/15 14:11:10;;;;;;;10.15;5.00;;;;;;;;;;5114416;28;20031;-64
2023/06/15 14:13:36;;;;;;;10.15;5.18;;;;;;;;;;5114337;28;20364;-64
2023/06/15 14:16:02;;;;;;;9.63;5.18;;;;;;;;;;5114035;28;20024;-64
2023/06/15 14:18:27;;;;;;;10.32;5.70;;;;;;;;;;5113717;28;20023;-64
2023/06/15 14:20:53;;;;;;;9.65;6.00;;;;;;;;;;5113877;28;20372;-64
2023/06/15 14:23:18;;;;;;;10.05;6.38;;;;;;;;;;5113882;28;20024;-64
2023/06/15 14:25:45;;;;;;;11.20;6.07;;;;;;;;;;5113927;28;20423;-64
2023/06/15 14:28:12;;;;;;;11.82;6.00;;;;;;;;;;5113596;28;20028;-65
2023/06/15 14:30:41;;;;;;;10.95;5.80;;;;;;;;;;5113776;28;20361;-64
2023/06/15 14:33:06;;;;;;;8.15;5.60;;;;;;;;;;5113579;28;20019;-64
2023/06/15 14:35:32;;;;;;;13.02;5.90;;;;;;;;;;5113884;28;20377;-65
2023/06/15 14:37:57;;;;;;;11.60;5.75;;;;;;;;;;5102086;28;20107;-64